Terminal Aerodrome Forecast
Issued by NWS

Home | Current Version | Previous Version | Graphics & Text | Print | Product List | Glossary On
Versions: 1 2 3 4 5 6 7 8 9 10 11 12 13 14
000
FTUS43 KGRB 292300
TAFMTW
TAF
KMTW 292328Z 3000/3024 29006KT P6SM BKN035
     FM301000 25004KT P6SM SCT035 OVC150
     FM301500 26007KT P6SM SCT035 OVC100
     FM302100 27008KT P6SM BKN035 OVC050 PROB30 3021/3024 -SHRA=

USA.gov is the U.S. government's official web portal to all federal, state and local government web resources and services.